Time,TemperatureF,DewpointF,PressureIn,WindDirection,WindDirectionDegrees,WindSpeedMPH,WindSpeedGustMPH,Humidity,HourlyPrecipIn,Conditions,Clouds,dailyrainin,SoftwareType,DateUTC
2013-04-04 00:09:00,29.7,15.9,30.24,South,180,5.3,-999.0,56,-99.99,,,0.00,Acu-Link.com,2013-04-04 04:09:00,
2013-04-04 00:24:00,28.4,15.9,30.23,SW,225,3.7,-999.0,59,-99.99,,,0.00,Acu-Link.com,2013-04-04 04:24:00,
2013-04-04 00:39:00,28.4,16.3,30.23,SW,225,5.3,-999.0,60,-99.99,,,0.00,Acu-Link.com,2013-04-04 04:39:00,
2013-04-04 00:54:00,27.9,16.2,30.22,SSW,202,3.2,-999.0,61,-99.99,,,0.00,Acu-Link.com,2013-04-04 04:54:00,
2013-04-04 01:09:00,28.2,16.5,30.22,SSE,157,6.8,-999.0,61,-99.99,,,0.00,Acu-Link.com,2013-04-04 05:09:00,
2013-04-04 01:25:00,27.7,16.8,30.21,SW,225,3.7,-999.0,63,-99.99,,,0.00,Acu-Link.com,2013-04-04 05:25:00,
2013-04-04 01:40:00,27.5,16.6,30.22,SSW,202,4.2,-999.0,63,-99.99,,,0.00,Acu-Link.com,2013-04-04 05:40:00,
2013-04-04 01:55:00,27.5,16.6,30.22,SW,225,4.2,-999.0,63,-99.99,,,0.00,Acu-Link.com,2013-04-04 05:55:00,
2013-04-04 02:10:00,27.5,16.6,30.22,SSW,202,2.2,-999.0,63,-99.99,,,0.00,Acu-Link.com,2013-04-04 06:10:00,
2013-04-04 02:25:00,27.3,16.4,30.22,South,180,5.3,-999.0,63,-99.99,,,0.00,Acu-Link.com,2013-04-04 06:25:00,
2013-04-04 02:40:00,27.1,16.2,30.21,SW,225,5.8,-999.0,63,-99.99,,,0.00,Acu-Link.com,2013-04-04 06:40:00,
2013-04-04 02:56:00,27.1,16.2,30.21,SSW,202,3.2,-999.0,63,-99.99,,,0.00,Acu-Link.com,2013-04-04 06:56:00,
2013-04-04 03:11:00,27.1,15.8,30.21,SSW,202,4.7,-999.0,62,-99.99,,,0.00,Acu-Link.com,2013-04-04 07:11:00,
2013-04-04 03:41:00,27.0,15.4,30.21,West,270,4.7,-999.0,61,-99.99,,,0.00,Acu-Link.com,2013-04-04 07:41:00,
2013-04-04 03:56:00,27.3,15.3,30.22,SSW,202,3.7,-999.0,60,-99.99,,,0.00,Acu-Link.com,2013-04-04 07:56:00,
2013-04-04 04:13:00,27.5,15.1,30.22,WSW,247,6.8,-999.0,59,-99.99,,,0.00,Acu-Link.com,2013-04-04 08:13:00,
2013-04-04 04:28:00,27.7,14.9,30.22,SSW,202,4.2,-999.0,58,-99.99,,,0.00,Acu-Link.com,2013-04-04 08:28:00,
2013-04-04 04:43:00,27.7,14.9,30.22,SW,225,6.3,-999.0,58,-99.99,,,0.00,Acu-Link.com,2013-04-04 08:43:00,
2013-04-04 04:58:00,27.3,14.5,30.22,South,180,5.3,-999.0,58,-99.99,,,0.00,Acu-Link.com,2013-04-04 08:58:00,
2013-04-04 05:13:00,27.1,14.3,30.21,SSW,202,3.2,-999.0,58,-99.99,,,0.00,Acu-Link.com,2013-04-04 09:13:00,
2013-04-04 05:59:00,27.1,15.5,30.21,SW,225,6.3,-999.0,61,-99.99,,,0.00,Acu-Link.com,2013-04-04 09:59:00,
2013-04-04 06:29:00,27.1,16.6,30.20,SW,225,3.2,-999.0,64,-99.99,,,0.00,Acu-Link.com,2013-04-04 10:29:00,
2013-04-04 06:44:00,27.1,16.9,30.20,SSW,202,3.7,-999.0,65,-99.99,,,0.00,Acu-Link.com,2013-04-04 10:44:00,
2013-04-04 06:59:00,27.1,17.3,30.19,SW,225,4.2,-999.0,66,-99.99,,,0.00,Acu-Link.com,2013-04-04 10:59:00,
2013-04-04 07:14:00,27.5,18.0,30.19,SW,225,2.7,-999.0,67,-99.99,,,0.00,Acu-Link.com,2013-04-04 11:14:00,
2013-04-04 07:29:00,28.2,19.0,30.19,SSW,202,4.2,-999.0,68,-99.99,,,0.00,Acu-Link.com,2013-04-04 11:29:00,
2013-04-04 07:44:00,28.8,20.3,30.20,SW,225,6.3,-999.0,70,-99.99,,,0.00,Acu-Link.com,2013-04-04 11:44:00,
2013-04-04 08:00:00,29.7,21.1,30.20,WSW,247,3.7,-999.0,70,-99.99,,,0.00,Acu-Link.com,2013-04-04 12:00:00,
2013-04-04 08:30:00,32.0,22.3,30.19,South,180,6.3,-999.0,67,-99.99,,,0.00,Acu-Link.com,2013-04-04 12:30:00,
2013-04-04 08:45:00,32.9,22.4,30.19,WSW,247,5.8,-999.0,65,-99.99,,,0.00,Acu-Link.com,2013-04-04 12:45:00,
2013-04-04 09:00:00,33.8,21.8,30.18,SW,225,13.5,-999.0,61,-99.99,,,0.00,Acu-Link.com,2013-04-04 13:00:00,
2013-04-04 09:15:00,34.7,21.9,30.17,WSW,247,5.8,-999.0,59,-99.99,,,0.00,Acu-Link.com,2013-04-04 13:15:00,
2013-04-04 09:30:00,35.4,21.3,30.16,SSW,202,5.3,-999.0,56,-99.99,,,0.00,Acu-Link.com,2013-04-04 13:30:00,
2013-04-04 09:45:00,36.7,22.1,30.15,SSW,202,8.9,-999.0,55,-99.99,,,0.00,Acu-Link.com,2013-04-04 13:45:00,
2013-04-04 10:00:00,36.9,21.8,30.13,SSW,202,8.9,-999.0,54,-99.99,,,0.00,Acu-Link.com,2013-04-04 14:00:00,
2013-04-04 11:16:00,42.4,23.1,30.10,SSW,202,4.7,-999.0,46,-99.99,,,0.00,Acu-Link.com,2013-04-04 15:16:00,
2013-04-04 11:46:00,45.3,24.1,30.08,South,180,11.4,-999.0,43,-99.99,,,0.00,Acu-Link.com,2013-04-04 15:46:00,
2013-04-04 12:01:00,45.0,23.9,30.06,SSW,202,5.8,-999.0,43,-99.99,,,0.00,Acu-Link.com,2013-04-04 16:01:00,
2013-04-04 12:17:00,46.2,23.2,30.05,WNW,292,9.9,-999.0,40,-99.99,,,0.00,Acu-Link.com,2013-04-04 16:17:00,
2013-04-04 12:32:00,46.2,22.6,30.04,SW,225,13.5,-999.0,39,-99.99,,,0.00,Acu-Link.com,2013-04-04 16:32:00,
2013-04-04 12:47:00,47.1,23.4,30.04,SW,225,8.9,-999.0,39,-99.99,,,0.00,Acu-Link.com,2013-04-04 16:47:00,
2013-04-04 13:02:00,48.2,23.8,30.02,SSW,202,6.8,-999.0,38,-99.99,,,0.00,Acu-Link.com,2013-04-04 17:02:00,
2013-04-04 13:17:00,49.5,25.0,30.02,West,270,3.2,-999.0,38,-99.99,,,0.00,Acu-Link.com,2013-04-04 17:17:00,
2013-04-04 13:32:00,48.2,21.8,30.01,SW,225,6.8,-999.0,35,-99.99,,,0.00,Acu-Link.com,2013-04-04 17:32:00,
2013-04-04 13:47:00,50.9,24.9,29.99,SW,225,6.3,-999.0,36,-99.99,,,0.00,Acu-Link.com,2013-04-04 17:47:00,
2013-04-04 14:02:00,49.8,21.1,29.98,SW,225,8.9,-999.0,32,-99.99,,,0.00,Acu-Link.com,2013-04-04 18:02:00,
2013-04-04 14:17:00,50.0,19.0,29.97,SW,225,12.5,-999.0,29,-99.99,,,0.00,Acu-Link.com,2013-04-04 18:17:00,
2013-04-04 14:33:00,50.9,19.8,29.96,WSW,247,8.3,-999.0,29,-99.99,,,0.00,Acu-Link.com,2013-04-04 18:33:00,
2013-04-04 14:48:00,51.4,13.9,29.94,WSW,247,15.0,-999.0,22,-99.99,,,0.00,Acu-Link.com,2013-04-04 18:48:00,
2013-04-04 15:03:00,50.9,10.1,29.94,SW,225,13.0,-999.0,19,-99.99,,,0.00,Acu-Link.com,2013-04-04 19:03:00,
2013-04-04 15:18:00,51.8,9.7,29.93,SW,225,8.3,-999.0,18,-99.99,,,0.00,Acu-Link.com,2013-04-04 19:18:00,
2013-04-04 15:33:00,51.3,11.6,29.93,West,270,8.3,-999.0,20,-99.99,,,0.00,Acu-Link.com,2013-04-04 19:33:00,
2013-04-04 15:48:00,51.1,6.5,29.91,WSW,247,13.5,-999.0,16,-99.99,,,0.00,Acu-Link.com,2013-04-04 19:48:00,
2013-04-04 16:04:00,52.0,7.2,29.91,SSW,202,8.3,-999.0,16,-99.99,,,0.00,Acu-Link.com,2013-04-04 20:04:00,
2013-04-04 16:19:00,51.4,5.3,29.90,SSW,202,10.4,-999.0,15,-99.99,,,0.00,Acu-Link.com,2013-04-04 20:19:00,
2013-04-04 16:49:00,52.9,8.0,29.89,West,270,11.4,-999.0,16,-99.99,,,0.00,Acu-Link.com,2013-04-04 20:49:00,
2013-04-04 17:04:00,53.6,11.1,29.89,SSW,202,7.8,-999.0,18,-99.99,,,0.00,Acu-Link.com,2013-04-04 21:04:00,
2013-04-04 17:19:00,54.0,12.7,29.88,WSW,247,9.4,-999.0,19,-99.99,,,0.00,Acu-Link.com,2013-04-04 21:19:00,
2013-04-04 17:34:00,54.3,12.9,29.87,SW,225,11.9,-999.0,19,-99.99,,,0.00,Acu-Link.com,2013-04-04 21:34:00,
2013-04-04 17:49:00,53.6,11.1,29.86,SSW,202,10.9,-999.0,18,-99.99,,,0.00,Acu-Link.com,2013-04-04 21:49:00,
2013-04-04 18:04:00,54.7,14.4,29.86,SW,225,5.8,-999.0,20,-99.99,,,0.00,Acu-Link.com,2013-04-04 22:04:00,
2013-04-04 18:20:00,54.3,11.7,29.85,SSW,202,5.8,-999.0,18,-99.99,,,0.00,Acu-Link.com,2013-04-04 22:20:00,
2013-04-04 18:35:00,53.4,11.0,29.84,SSW,202,7.3,-999.0,18,-99.99,,,0.00,Acu-Link.com,2013-04-04 22:35:00,
2013-04-04 18:50:00,52.3,10.1,29.84,SSW,202,8.3,-999.0,18,-99.99,,,0.00,Acu-Link.com,2013-04-04 22:50:00,
2013-04-04 19:05:00,50.7,11.1,29.84,SW,225,9.4,-999.0,20,-99.99,,,0.00,Acu-Link.com,2013-04-04 23:05:00,
2013-04-04 19:20:00,49.8,11.5,29.83,SSW,202,4.7,-999.0,21,-99.99,,,0.00,Acu-Link.com,2013-04-04 23:20:00,
2013-04-04 19:35:00,48.4,11.3,29.82,SW,225,5.3,-999.0,22,-99.99,,,0.00,Acu-Link.com,2013-04-04 23:35:00,
2013-04-04 19:51:00,47.5,11.6,29.81,SW,225,5.3,-999.0,23,-99.99,,,0.00,Acu-Link.com,2013-04-04 23:51:00,
2013-04-04 21:06:00,43.0,12.2,29.81,WSW,247,4.2,-999.0,28,-99.99,,,0.00,Acu-Link.com,2013-04-05 01:06:00,
2013-04-04 21:21:00,42.4,11.6,29.81,South,180,2.7,-999.0,28,-99.99,,,0.00,Acu-Link.com,2013-04-05 01:21:00,
2013-04-04 21:36:00,39.4,16.5,29.81,SSW,202,2.7,-999.0,39,-99.99,,,0.00,Acu-Link.com,2013-04-05 01:36:00,
2013-04-04 21:51:00,37.8,18.4,29.79,SSW,202,3.7,-999.0,45,-99.99,,,0.00,Acu-Link.com,2013-04-05 01:51:00,
2013-04-04 22:07:00,37.6,16.6,29.79,SSW,202,3.7,-999.0,42,-99.99,,,0.00,Acu-Link.com,2013-04-05 02:07:00,
2013-04-04 22:22:00,38.8,14.8,29.78,SSW,202,4.7,-999.0,37,-99.99,,,0.00,Acu-Link.com,2013-04-05 02:22:00,
2013-04-04 22:37:00,35.4,19.1,29.77,SW,225,2.7,-999.0,51,-99.99,,,0.00,Acu-Link.com,2013-04-05 02:37:00,
2013-04-04 22:52:00,36.1,19.7,29.77,SSE,157,3.2,-999.0,51,-99.99,,,0.00,Acu-Link.com,2013-04-05 02:52:00,
2013-04-04 23:07:00,35.8,19.9,29.77,SSW,202,2.7,-999.0,52,-99.99,,,0.00,Acu-Link.com,2013-04-05 03:07:00,
2013-04-04 23:22:00,34.5,20.0,29.77,South,180,3.2,-999.0,55,-99.99,,,0.00,Acu-Link.com,2013-04-05 03:22:00,
2013-04-04 23:37:00,35.1,19.7,29.76,SSW,202,3.7,-999.0,53,-99.99,,,0.00,Acu-Link.com,2013-04-05 03:37:00,
2013-04-04 23:52:00,35.2,19.8,29.76,SSW,202,3.2,-999.0,53,-99.99,,,0.00,Acu-Link.com,2013-04-05 03:52:00,